createdAt,value
2023-10-20T00:04:41.535Z,7.10
2023-10-20T00:09:44.021Z,7.55
2023-10-20T00:14:46.477Z,9.43
2023-10-20T00:19:49.283Z,6.18
2023-10-20T00:24:52.173Z,6.43
2023-10-20T00:29:54.524Z,10.60
2023-10-20T00:34:56.854Z,9.25
2023-10-20T00:39:59.663Z,8.45
2023-10-20T00:45:01.944Z,5.68
2023-10-20T00:50:06.412Z,14.30
2023-10-20T00:55:10.002Z,6.38
2023-10-20T01:00:12.920Z,6.28
2023-10-20T01:05:24.542Z,7.40
2023-10-20T01:10:26.837Z,12.43
2023-10-20T01:15:29.275Z,7.53
2023-10-20T01:20:31.991Z,6.32
2023-10-20T01:25:34.507Z,7.88
2023-10-20T01:30:36.768Z,9.13
2023-10-20T01:35:39.076Z,7.80
2023-10-20T01:40:41.479Z,7.15
2023-10-20T01:45:43.928Z,14.52
2023-10-20T01:50:46.525Z,10.27
2023-10-20T01:55:51.198Z,8.52
2023-10-20T02:00:54.102Z,7.95
2023-10-20T02:05:56.344Z,8.40
2023-10-20T02:10:58.618Z,10.93
2023-10-20T02:16:01.111Z,5.20
2023-10-20T02:21:09.521Z,7.57
2023-10-20T02:26:12.692Z,8.13
2023-10-20T02:31:19.190Z,12.20
2023-10-20T02:36:23.504Z,4.90
2023-10-20T02:41:25.913Z,5.65
2023-10-20T02:46:28.332Z,8.63
2023-10-20T02:51:30.637Z,8.25
2023-10-20T02:56:33.007Z,7.90
2023-10-20T03:01:35.310Z,5.75
2023-10-20T03:06:37.632Z,7.78
2023-10-20T03:11:39.957Z,8.68
2023-10-20T03:16:44.584Z,7.63
2023-10-20T03:21:46.852Z,11.02
2023-10-20T03:26:49.827Z,12.23
2023-10-20T03:31:52.218Z,11.25
2023-10-20T03:36:54.504Z,9.88
2023-10-20T03:41:56.823Z,10.90
2023-10-20T03:46:59.139Z,11.02
2023-10-20T03:52:02.280Z,10.48
2023-10-20T03:57:05.172Z,14.88
2023-10-20T04:02:07.490Z,6.93
2023-10-20T04:07:09.945Z,10.85
2023-10-20T04:12:12.886Z,13.30
2023-10-20T04:17:17.667Z,18.27
2023-10-20T04:22:20.207Z,8.23
2023-10-20T04:27:42.310Z,13.68
2023-10-20T04:33:06.574Z,13.73
2023-10-20T04:38:27.333Z,12.73
2023-10-20T04:43:35.841Z,16.52
2023-10-20T04:48:56.736Z,18.25
2023-10-20T04:54:23.957Z,18.20
2023-10-20T04:59:26.236Z,15.93
2023-10-20T05:04:40.232Z,13.13
2023-10-20T05:09:45.850Z,10.98
2023-10-20T05:14:51.411Z,11.90
2023-10-20T05:19:55.230Z,16.25
2023-10-20T05:24:57.491Z,24.45
2023-10-20T05:30:00.013Z,13.90
2023-10-20T05:35:02.908Z,22.25
2023-10-20T05:40:06.195Z,30.02
2023-10-20T05:45:11.785Z,33.22
2023-10-20T05:50:15.092Z,30.75
2023-10-20T05:55:17.648Z,27.52
2023-10-20T06:00:20.074Z,23.92
2023-10-20T06:05:22.870Z,17.17
2023-10-20T06:10:25.138Z,14.30
2023-10-20T06:15:28.071Z,12.73
2023-10-20T06:20:30.357Z,10.65
2023-10-20T06:25:33.500Z,9.80
2023-10-20T06:30:43.958Z,11.93
2023-10-20T06:35:53.119Z,14.02
2023-10-20T06:40:55.492Z,8.52
2023-10-20T06:45:59.125Z,14.43
2023-10-20T06:51:01.780Z,11.15
2023-10-20T06:56:14.413Z,7.70
2023-10-20T07:01:19.770Z,6.85
2023-10-20T07:06:22.369Z,11.38
2023-10-20T07:11:25.889Z,6.35
2023-10-20T07:16:29.000Z,13.35
2023-10-20T07:21:32.095Z,7.47
2023-10-20T07:26:34.608Z,4.88
2023-10-20T07:31:39.631Z,14.90
2023-10-20T07:36:42.401Z,5.03
2023-10-20T07:41:45.976Z,12.48
2023-10-20T07:46:48.350Z,5.45
2023-10-20T07:51:50.604Z,13.63
2023-10-20T07:56:53.163Z,8.70
2023-10-20T08:01:55.439Z,11.15
2023-10-20T08:07:00.932Z,8.73
2023-10-20T08:12:14.820Z,10.85
2023-10-20T08:17:17.804Z,8.82
2023-10-20T08:22:20.203Z,5.85
2023-10-20T08:27:22.825Z,5.22
2023-10-20T08:32:26.418Z,4.07
2023-10-20T08:37:30.010Z,4.40
2023-10-20T08:42:32.071Z,9.25
2023-10-20T08:47:35.027Z,7.22
2023-10-20T08:52:40.026Z,8.77
2023-10-20T08:57:42.807Z,4.18
2023-10-20T09:02:45.124Z,5.80
2023-10-20T09:08:01.012Z,8.68
2023-10-20T09:13:03.268Z,7.22
2023-10-20T09:18:10.358Z,9.45
2023-10-20T09:23:13.692Z,7.47
2023-10-20T09:28:19.131Z,3.90
2023-10-20T09:33:22.843Z,10.25
2023-10-20T09:38:31.259Z,5.20
2023-10-20T09:43:37.624Z,9.57
2023-10-20T09:48:42.320Z,8.80
2023-10-20T09:53:45.896Z,4.13
2023-10-20T09:58:48.289Z,8.23
2023-10-20T10:04:10.133Z,6.93
2023-10-20T10:09:12.511Z,4.88
2023-10-20T10:14:23.169Z,13.40
2023-10-20T10:19:27.509Z,6.40
2023-10-20T10:24:33.751Z,5.00
2023-10-20T10:30:02.699Z,8.95
2023-10-20T10:35:06.024Z,6.13
2023-10-20T10:40:10.424Z,6.47
2023-10-20T10:45:24.645Z,5.43
2023-10-20T10:50:27.049Z,10.35
2023-10-20T10:55:29.541Z,5.40
2023-10-20T11:00:32.448Z,2.85
2023-10-20T11:05:35.621Z,7.45
2023-10-20T11:10:43.898Z,5.35
2023-10-20T11:15:46.376Z,7.50
2023-10-20T11:20:51.224Z,5.65
2023-10-20T11:25:53.635Z,6.57
2023-10-20T11:30:56.926Z,5.53
2023-10-20T11:36:01.894Z,4.25
2023-10-20T11:41:04.274Z,8.02
2023-10-20T11:46:08.158Z,5.00
2023-10-20T11:51:12.151Z,3.58
2023-10-20T11:56:17.012Z,5.07
2023-10-20T12:01:19.364Z,4.13
2023-10-20T12:06:22.297Z,7.00
2023-10-20T12:11:25.757Z,6.78
2023-10-20T12:16:31.595Z,4.93
2023-10-20T12:21:34.165Z,3.30
2023-10-20T12:26:38.381Z,7.65
2023-10-20T12:31:41.016Z,9.05
2023-10-20T12:36:44.484Z,7.55
2023-10-20T12:41:47.441Z,5.13
2023-10-20T12:46:49.913Z,5.22
2023-10-20T12:51:52.350Z,4.47
2023-10-20T12:56:54.711Z,9.05
2023-10-20T13:01:57.536Z,4.50
2023-10-20T13:07:01.137Z,4.05
2023-10-20T13:12:04.054Z,4.60
2023-10-20T13:17:06.695Z,3.30
2023-10-20T13:22:08.946Z,5.70
2023-10-20T13:27:11.780Z,5.03
2023-10-20T13:32:14.071Z,9.10
2023-10-20T13:37:16.389Z,5.15
2023-10-20T13:42:18.663Z,4.28
2023-10-20T13:47:21.159Z,6.45
2023-10-20T13:52:23.734Z,4.85
2023-10-20T13:57:26.463Z,8.23
2023-10-20T14:02:29.916Z,6.38
2023-10-20T14:07:33.004Z,5.25
2023-10-20T14:12:37.217Z,7.05
2023-10-20T14:17:39.594Z,5.80
2023-10-20T14:22:41.945Z,9.23
2023-10-20T14:27:44.249Z,13.68
2023-10-20T14:32:46.554Z,9.27
2023-10-20T14:37:48.896Z,13.55
2023-10-20T14:42:51.158Z,6.30
2023-10-20T14:47:53.435Z,7.65
2023-10-20T14:52:57.622Z,10.68
2023-10-20T14:58:01.050Z,7.13
2023-10-20T15:03:03.535Z,11.13
2023-10-20T15:08:06.156Z,7.40
2023-10-20T15:13:08.828Z,10.65
2023-10-20T15:18:11.340Z,10.85
2023-10-20T15:23:18.492Z,7.25
2023-10-20T15:28:22.427Z,5.28
2023-10-20T15:33:24.766Z,13.18
2023-10-20T15:38:27.036Z,7.75
2023-10-20T15:43:29.672Z,16.05
2023-10-20T15:48:32.110Z,15.93
2023-10-20T15:53:37.256Z,19.17
2023-10-20T15:58:39.630Z,19.02
2023-10-20T16:03:42.286Z,25.20
2023-10-20T16:08:44.808Z,20.55
2023-10-20T16:13:47.080Z,26.15
2023-10-20T16:18:49.425Z,24.30
2023-10-20T16:23:52.044Z,19.85
2023-10-20T16:28:54.381Z,26.83
2023-10-20T16:33:56.701Z,17.63
2023-10-20T16:38:59.227Z,27.30
2023-10-20T16:44:01.564Z,17.63
2023-10-20T16:49:03.880Z,26.73
2023-10-20T16:54:06.377Z,27.48
2023-10-20T16:59:09.281Z,27.13
2023-10-20T17:04:23.249Z,18.13
2023-10-20T17:09:25.812Z,29.60
2023-10-20T17:14:29.208Z,26.73
2023-10-20T17:19:31.492Z,18.00
2023-10-20T17:24:34.422Z,24.83
2023-10-20T17:29:38.129Z,29.98
2023-10-20T17:34:40.832Z,30.15
2023-10-20T17:39:43.059Z,22.88
2023-10-20T17:44:45.416Z,28.38
2023-10-20T17:49:47.808Z,26.63
2023-10-20T17:54:51.233Z,30.10
2023-10-20T17:59:53.645Z,28.65
2023-10-20T18:04:56.271Z,34.33
2023-10-20T18:09:58.540Z,31.38
2023-10-20T18:15:01.137Z,26.65
2023-10-20T18:20:03.520Z,34.90
2023-10-20T18:25:07.269Z,35.47
2023-10-20T18:30:10.314Z,31.15
2023-10-20T18:35:12.679Z,35.80
2023-10-20T18:40:15.091Z,29.85
2023-10-20T18:45:17.434Z,35.28
2023-10-20T18:50:19.728Z,45.83
2023-10-20T18:55:22.843Z,35.25
2023-10-20T19:00:25.303Z,36.03
2023-10-20T19:05:27.984Z,49.83
2023-10-20T19:10:31.616Z,34.08
2023-10-20T19:15:34.797Z,28.58
2023-10-20T19:20:37.689Z,36.13
2023-10-20T19:25:41.173Z,46.08
2023-10-20T19:30:44.077Z,31.83
2023-10-20T19:35:46.376Z,34.28
2023-10-20T19:40:49.090Z,32.22
2023-10-20T19:45:51.985Z,25.20
2023-10-20T19:50:54.390Z,17.58
2023-10-20T19:55:56.767Z,25.33
2023-10-20T20:01:01.947Z,18.92
2023-10-20T20:06:11.488Z,17.83
2023-10-20T20:11:16.200Z,16.90
2023-10-20T20:16:18.498Z,22.70
2023-10-20T20:21:20.921Z,14.40
2023-10-20T20:26:23.588Z,20.42
2023-10-20T20:31:26.996Z,30.73
2023-10-20T20:36:29.420Z,23.67
2023-10-20T20:41:32.349Z,16.60
2023-10-20T20:46:34.867Z,25.17
2023-10-20T20:51:37.651Z,13.30
2023-10-20T20:56:39.913Z,30.73
2023-10-20T21:01:42.611Z,41.28
2023-10-20T21:06:44.866Z,41.38
2023-10-20T21:11:47.172Z,24.63
2023-10-20T21:16:49.541Z,23.42
2023-10-20T21:21:51.813Z,20.73
2023-10-20T21:26:57.200Z,21.77
2023-10-20T21:31:59.705Z,26.05
2023-10-20T21:37:02.134Z,24.23
2023-10-20T21:42:06.307Z,23.48
2023-10-20T21:47:08.732Z,24.35
2023-10-20T21:52:10.946Z,16.30
2023-10-20T21:57:13.193Z,20.17
2023-10-20T22:02:18.080Z,15.52
2023-10-20T22:07:20.365Z,13.98
2023-10-20T22:12:22.794Z,17.65
2023-10-20T22:17:25.175Z,14.75
2023-10-20T22:22:27.997Z,19.77
2023-10-20T22:27:30.896Z,18.95
2023-10-20T22:32:33.527Z,14.95
2023-10-20T22:37:35.846Z,27.77
2023-10-20T22:42:38.208Z,17.98
2023-10-20T22:47:40.575Z,12.05
2023-10-20T22:52:43.082Z,16.65
2023-10-20T22:57:45.329Z,14.95
2023-10-20T23:02:49.564Z,17.90
2023-10-20T23:07:51.944Z,16.83
2023-10-20T23:12:54.345Z,16.95
2023-10-20T23:17:56.759Z,18.70
2023-10-20T23:22:59.137Z,13.75
2023-10-20T23:28:01.596Z,13.10
2023-10-20T23:33:06.067Z,13.63
2023-10-20T23:38:08.408Z,18.10
2023-10-20T23:43:10.794Z,9.27
2023-10-20T23:48:13.120Z,16.75
2023-10-20T23:53:15.570Z,13.93
2023-10-20T23:58:18.075Z,17.77
